• Join FlightAware (Why Join?)
  • Login
  • US Flag 
11:57AM EDT


 

Airport Tracker/Info


-or-


 

Live Flight TrackerFlight Track Log ✈ N5329F ✈ 02-May-2012 ✈ KADS - KSDF

Flight Track Log - Related Links

Times and Time Zones

All times are in EDT time to prevent confusion due to time zone crossing. See the N5329F flight status page for this flight to view local times or setup timezone preferences in your user account.

Time Position Orientation Groundspeed Altitude Reporting Facility
EDT Latitude Longitude Course Direction KTS MPH feet Rate Location/Type
03:02PM 33.0456 -96.6583 56° Northeast 166 191 2,400  Level FAA TRACON SMA TRACON (SMA)
03:03PM 33.0617 -96.6297 56° Northeast 169 194 2,400  Level FAA TRACON SMA TRACON (SMA)
03:04PM 33.0797 -96.5972 56° Northeast 170 196 2,400  Level FAA TRACON SMA TRACON (SMA)
03:04PM 33.0978 -96.5647 54° Northeast 171 197 2,400  Level FAA TRACON SMA TRACON (SMA)
03:05PM 33.1150 -96.5361 59° Northeast 172 198 2,400  Level FAA TRACON SMA TRACON (SMA)
03:06PM 33.1336 -96.4986 53° Northeast 171 197 2,400  Level FAA TRACON SMA TRACON (SMA)
03:06PM 33.1514 -96.4703 57° Northeast 172 198 2,400 360 Level FAA TRACON SMA TRACON (SMA)
03:07PM 33.1667 -96.4419 57° Northeast 166 191 2,900 780 Climbing FAA TRACON SMA TRACON (SMA)
03:08PM 33.1833 -96.4114 55° Northeast 156 180 3,500 780 Climbing FAA TRACON SMA TRACON (SMA)
03:08PM 33.2003 -96.3825 59° Northeast 153 176 4,000 600 Climbing FAA TRACON SMA TRACON (SMA)
03:09PM 33.2142 -96.3550 57° Northeast 157 181 4,300 600 Climbing FAA TRACON SMA TRACON (SMA)
03:10PM 33.2308 -96.3247 56° Northeast 158 182 4,800 660 Climbing FAA TRACON SMA TRACON (SMA)
03:10PM 33.2481 -96.2942 59° Northeast 160 184 5,200 480 Climbing FAA TRACON SMA TRACON (SMA)
03:11PM 33.2628 -96.2653 54° Northeast 163 188 5,500 480 Climbing FAA TRACON SMA TRACON (SMA)
03:12PM 33.2814 -96.2342 58° Northeast 167 192 5,900 600 Climbing FAA TRACON SMA TRACON (SMA)
03:12PM 33.2983 -96.2017 61° Northeast 166 191 6,300 480 Climbing FAA TRACON SMA TRACON (SMA)
03:13PM 33.3103 -96.1756 56° Northeast 168 193 6,600 480 Climbing FAA TRACON SMA TRACON (SMA)
03:14PM 33.3306 -96.1392 51° Northeast 171 197 7,000 480 Climbing FAA TRACON SMA TRACON (SMA)
03:14PM 33.3514 -96.1081 55° Northeast 173 199 7,300 420 Climbing FAA TRACON SMA TRACON (SMA)
03:15PM 33.3686 -96.0781 55° Northeast 178 205 7,600 480 Climbing FAA TRACON SMA TRACON (SMA)
03:16PM 33.3878 -96.0447 58° Northeast 176 203 8,000 480 Climbing FAA TRACON SMA TRACON (SMA)
03:16PM 33.4058 -96.0106 69° East 176 203 8,300 600 Climbing FAA TRACON SMA TRACON (SMA)
03:17PM 33.4239 -95.9550 55° Northeast 164 189 9,100 600 Climbing Fort Worth Center
03:18PM 33.4506 -95.9097 57° Northeast 164 189 9,600 540 Climbing Fort Worth Center
03:19PM 33.4792 -95.8569 59° Northeast 164 189 10,200 540 Climbing Fort Worth Center
03:20PM 33.5017 -95.8117 54° Northeast 164 189 10,700 540 Climbing Fort Worth Center
03:21PM 33.5322 -95.7614 58° Northeast 164 189 11,300 540 Climbing Fort Worth Center
03:22PM 33.5586 -95.7108 61° Northeast 169 194 11,800 420 Climbing Fort Worth Center
03:23PM 33.5831 -95.6581 54° Northeast 174 200 12,200 420 Climbing Fort Worth Center
03:24PM 33.6117 -95.6103 66° East 174 200 12,700 420 Climbing Fort Worth Center
03:25PM 33.6297 -95.5625 54° Northeast 169 194 13,100 360 Climbing Fort Worth Center
03:26PM 33.6603 -95.5119 60° Northeast 169 194 13,500 420 Climbing Fort Worth Center
03:27PM 33.6844 -95.4614 59° Northeast 169 194 14,000 480 Climbing Fort Worth Center
03:28PM 33.7108 -95.4083 61° Northeast 169 194 14,500 420 Climbing Fort Worth Center
03:29PM 33.7369 -95.3528 53° Northeast 176 203 14,900 420 Climbing Fort Worth Center
03:30PM 33.7717 -95.2969 56° Northeast 189 217 15,400 300 Climbing Fort Worth Center
03:31PM 33.8019 -95.2439 60° Northeast 194 223 15,500  Climbing Fort Worth Center
03:32PM 33.8303 -95.1856 58° Northeast 189 217 15,500  Level Fort Worth Center
03:33PM 33.8606 -95.1272 57° Northeast 189 217 15,500  Level Fort Worth Center
03:34PM 33.8908 -95.0714 56° Northeast 189 217 15,500  Level Fort Worth Center
03:35PM 33.9231 -95.0131 60° Northeast 194 223 15,500  Level Fort Worth Center
03:36PM 33.9511 -94.9547 55° Northeast 194 223 15,500  Level Fort Worth Center
03:37PM 33.9833 -94.8986 60° Northeast 189 217 15,500  Level Fort Worth Center
03:38PM 34.0114 -94.8403 57° Northeast 189 217 15,500  Level Fort Worth Center
03:39PM 34.0414 -94.7842 57° Northeast 189 217 15,600  Climbing Fort Worth Center
03:40PM 34.0717 -94.7281 58° Northeast 189 217 15,600  Level Fort Worth Center
03:41PM 34.1017 -94.6694 57° Northeast 189 217 15,600  Level Fort Worth Center
03:42PM 34.1317 -94.6133 59° Northeast 189 217 15,600  Level Fort Worth Center
03:43PM 34.1597 -94.5572 58° Northeast 189 217 15,600  Level Fort Worth Center
03:45PM 34.2186 -94.4439 58° Northeast 192 221 15,600  Level Memphis Center
03:46PM 34.2475 -94.3875 58° Northeast 197 227 15,600  Level Memphis Center
03:47PM 34.2764 -94.3311 58° Northeast 197 227 15,600  Level Memphis Center
03:48PM 34.3053 -94.2744 58° Northeast 197 227 15,600  Level Memphis Center
03:49PM 34.3342 -94.2181 58° Northeast 197 227 15,600  Level Memphis Center
03:50PM 34.3631 -94.1614 58° Northeast 202 232 15,600  Level Memphis Center
03:51PM 34.3919 -94.1047 56° Northeast 202 232 15,600  Level Memphis Center
03:52PM 34.4228 -94.0483 60° Northeast 202 232 15,600  Level Memphis Center
03:53PM 34.4519 -93.9867 61° Northeast 202 232 15,600  Level Memphis Center
03:54PM 34.4764 -93.9322 58° Northeast 202 232 15,600  Level Memphis Center
03:55PM 34.5050 -93.8756 55° Northeast 202 232 15,600  Level Memphis Center
03:56PM 34.5381 -93.8189 59° Northeast 202 232 15,600  Level Memphis Center
03:57PM 34.5667 -93.7619 59° Northeast 202 232 15,600  Level Memphis Center
03:58PM 34.5953 -93.7050 62° Northeast 202 232 15,600  Level Memphis Center
03:59PM 34.6219 -93.6431 54° Northeast 202 232 15,600 -60 Level Memphis Center
04:00PM 34.6547 -93.5886 61° Northeast 202 232 15,500  Descending Memphis Center
04:01PM 34.6814 -93.5292 57° Northeast 202 232 15,600  Climbing Memphis Center
04:02PM 34.7119 -93.4722 60° Northeast 202 232 15,500  Descending Memphis Center
04:03PM 34.7406 -93.4125 60° Northeast 202 232 15,600  Climbing Memphis Center
04:04PM 34.7692 -93.3528 57° Northeast 202 232 15,600 -60 Level Memphis Center
04:05PM 34.7997 -93.2958 60° Northeast 202 232 15,500 -60 Descending Memphis Center
04:06PM 34.8281 -93.2361 59° Northeast 202 232 15,500  Level Memphis Center
04:07PM 34.8567 -93.1789 60° Northeast 202 232 15,600  Climbing Memphis Center
04:08PM 34.8850 -93.1192 57° Northeast 202 232 15,600  Level Memphis Center
04:09PM 34.9156 -93.0619 60° Northeast 202 232 15,600  Level Memphis Center
04:10PM 34.9439 -93.0019 59° Northeast 202 232 15,600  Level Memphis Center
04:11PM 34.9722 -92.9444 60° Northeast 202 232 15,600 -60 Level Memphis Center
04:12PM 35.0006 -92.8844 57° Northeast 202 232 15,500  Descending Memphis Center
04:13PM 35.0308 -92.8272 60° Northeast 202 232 15,600  Climbing Memphis Center
04:14PM 35.0592 -92.7672 59° Northeast 202 232 15,600  Level Memphis Center
04:15PM 35.0875 -92.7094 59° Northeast 202 232 15,600  Level Memphis Center
04:16PM 35.1156 -92.6519 59° Northeast 202 232 15,600  Level Memphis Center
04:17PM 35.1439 -92.5942 59° Northeast 202 232 15,600  Level Memphis Center
04:18PM 35.1719 -92.5367 59° Northeast 202 232 15,600  Level Memphis Center
04:19PM 35.1978 -92.4839 60° Northeast 202 232 15,600  Level Memphis Center
04:20PM 35.2325 -92.4111 59° Northeast 202 232 15,600  Level Memphis Center
04:21PM 35.2606 -92.3533 58° Northeast 202 232 15,600  Level Memphis Center
04:22PM 35.2906 -92.2956 60° Northeast 202 232 15,600  Level Memphis Center
04:23PM 35.3186 -92.2350 59° Northeast 202 232 15,600  Level Memphis Center
04:24PM 35.3467 -92.1772 60° Northeast 202 232 15,600  Level Memphis Center
04:25PM 35.3747 -92.1167 59° Northeast 202 232 15,600  Level Memphis Center
04:26PM 35.4047 -92.0561 59° Northeast 202 232 15,600  Level Memphis Center
04:27PM 35.4347 -91.9956 61° Northeast 207 238 15,600  Level Memphis Center
04:28PM 35.4606 -91.9375 57° Northeast 202 232 15,600  Level Memphis Center
04:29PM 35.4883 -91.8844 60° Northeast 202 232 15,600  Level Memphis Center
04:30PM 35.5161 -91.8264 62° Northeast 202 232 15,600  Level Memphis Center
04:31PM 35.5417 -91.7681 60° Northeast 202 232 15,600  Level Memphis Center
04:32PM 35.5694 -91.7097 58° Northeast 202 232 15,600  Level Memphis Center
04:33PM 35.5994 -91.6514 60° Northeast 202 232 15,600  Level Memphis Center
04:34PM 35.6269 -91.5933 60° Northeast 202 232 15,600  Level Memphis Center
04:35PM 35.6547 -91.5350 60° Northeast 202 232 15,600  Level Memphis Center
04:36PM 35.6825 -91.4764 60° Northeast 202 232 15,600  Level Memphis Center
04:37PM 35.7100 -91.4181 64° Northeast 202 232 15,600  Level Memphis Center
04:38PM 35.7333 -91.3594 63° Northeast 202 232 15,600  Level Memphis Center
04:39PM 35.7589 -91.2983 60° Northeast 197 227 15,600  Level Memphis Center
04:40PM 35.7864 -91.2400 58° Northeast 197 227 15,600  Level Memphis Center
04:41PM 35.8161 -91.1814 62° Northeast 197 227 15,600  Level Memphis Center
04:42PM 35.8414 -91.1228 60° Northeast 197 227 15,600  Level Memphis Center
04:43PM 35.8689 -91.0639 58° Northeast 197 227 15,600  Level Memphis Center
04:44PM 35.8983 -91.0053 55° Northeast 197 227 15,600  Level Memphis Center
04:45PM 35.9300 -90.9492 58° Northeast 197 227 15,600 -120 Level Memphis Center
04:46PM 35.9594 -90.8906 65° Northeast 202 232 15,400  Descending Memphis Center
04:47PM 35.9825 -90.8289 57° Northeast 202 232 15,600 60 Climbing Memphis Center
04:48PM 36.0119 -90.7728 63° Northeast 202 232 15,600  Level Memphis Center
04:49PM 36.0372 -90.7111 60° Northeast 202 232 15,600  Level Memphis Center
04:50PM 36.0644 -90.6522 59° Northeast 202 232 15,600  Level Memphis Center
04:51PM 36.0917 -90.5958 61° Northeast 197 227 15,600  Level Memphis Center
04:52PM 36.1189 -90.5342 58° Northeast 197 227 15,600  Level Memphis Center
04:53PM 36.1481 -90.4753 60° Northeast 202 232 15,600  Level Memphis Center
04:54PM 36.1753 -90.4161 60° Northeast 202 232 15,600  Level Memphis Center
04:55PM 36.2025 -90.3569 61° Northeast 202 232 15,600  Level Memphis Center
04:56PM 36.2294 -90.2978 62° Northeast 202 232 15,600  Level Memphis Center
04:57PM 36.2544 -90.2386 59° Northeast 202 232 15,600  Level Memphis Center
04:58PM 36.2814 -90.1819 62° Northeast 202 232 15,600  Level Memphis Center
04:59PM 36.3083 -90.1200 60° Northeast 202 232 15,600  Level Memphis Center
05:00PM 36.3356 -90.0606 59° Northeast 202 232 15,700  Climbing Memphis Center
05:01PM 36.3644 -90.0014 61° Northeast 202 232 15,700  Level Memphis Center
05:02PM 36.3914 -89.9419 62° Northeast 202 232 15,700  Level Memphis Center
05:03PM 36.4161 -89.8850 61° Northeast 197 227 15,700  Level Memphis Center
05:04PM 36.4431 -89.8256 60° Northeast 197 227 15,700  Level Memphis Center
05:05PM 36.4719 -89.7633 61° Northeast 197 227 15,700  Level Memphis Center
05:06PM 36.5008 -89.6986 60° Northeast 197 227 15,700  Level Memphis Center
05:07PM 36.5275 -89.6417 60° Northeast 197 227 15,700  Level Memphis Center
05:08PM 36.5564 -89.5794 63° Northeast 197 227 15,700  Level Memphis Center
05:09PM 36.5811 -89.5197 58° Northeast 197 227 15,700  Level Memphis Center
05:10PM 36.6097 -89.4625 62° Northeast 197 227 15,700  Level Memphis Center
05:11PM 36.6364 -89.4003 61° Northeast 197 227 15,700  Level Memphis Center
05:12PM 36.6631 -89.3403 60° Northeast 197 227 15,700  Level Memphis Center
05:13PM 36.6917 -89.2778 63° Northeast 197 227 15,700  Level Memphis Center
05:14PM 36.7161 -89.2181 61° Northeast 197 227 15,700  Level Memphis Center
05:15PM 36.7428 -89.1581 60° Northeast 197 227 15,700  Level Memphis Center
05:16PM 36.7711 -89.0956 61° Northeast 203 234 15,700  Level Memphis Center
05:17PM 36.7978 -89.0356 61° Northeast 203 234 15,700  Level Memphis Center
05:18PM 36.8242 -88.9756 62° Northeast 203 234 15,700  Level Memphis Center
05:19PM 36.8506 -88.9128 60° Northeast 203 234 15,700  Level Memphis Center
05:20PM 36.8769 -88.8553 61° Northeast 203 234 15,700  Level Memphis Center
05:21PM 36.9053 -88.7925 62° Northeast 203 234 15,700  Level Memphis Center
05:22PM 36.9317 -88.7297 62° Northeast 203 234 15,700  Level Memphis Center
05:23PM 36.9578 -88.6694 61° Northeast 203 234 15,700  Level Memphis Center
05:24PM 36.9822 -88.6144 60° Northeast 203 234 15,700  Level Memphis Center
05:25PM 37.0083 -88.5567 63° Northeast 203 234 15,700  Level Memphis Center
05:26PM 37.0344 -88.4936 61° Northeast 203 234 15,700  Level Memphis Center
05:27PM 37.0606 -88.4333 61° Northeast 203 234 15,700  Level Memphis Center
05:28PM 37.0889 -88.3700 61° Northeast 203 234 15,700  Level Memphis Center
05:29PM 37.1150 -88.3097 62° Northeast 203 234 15,700  Level Memphis Center
05:30PM 37.1411 -88.2492 61° Northeast 203 234 15,700 -240 Level Memphis Center
05:31PM 37.1692 -88.1858 62° Northeast 203 234 15,300 -300 Descending Memphis Center
05:32PM 37.1972 -88.1200 65° Northeast 203 234 15,100 -300 Descending Memphis Center
05:33PM 37.2250 -88.0439 62° Northeast 216 249 14,700 -360 Descending Memphis Center
05:34PM 37.2547 -87.9725 62° Northeast 216 249 14,400 -360 Descending Memphis Center
05:36PM 37.3006 -87.8653 64° Northeast 217 250 13,800 -300 Descending Indianapolis Center
05:37PM 37.3222 -87.8089 62° Northeast 220 253 13,700 -300 Descending Memphis Center
05:38PM 37.3542 -87.7322 64° Northeast 215 247 13,300 -360 Descending Memphis Center
05:39PM 37.3778 -87.6714 58° Northeast 215 247 13,000 -360 Descending Memphis Center
05:40PM 37.4097 -87.6075 64° Northeast 212 244 12,700 -300 Descending Memphis Center
05:41PM 37.4333 -87.5467 61° Northeast 208 239 12,500 -300 Descending Memphis Center
05:42PM 37.4631 -87.4778 63° Northeast 210 242 12,200 -360 Descending Memphis Center
05:43PM 37.4925 -87.4033 60° Northeast 211 243 11,800 -360 Descending Memphis Center
05:44PM 37.5222 -87.3394 64° Northeast 212 244 11,500 -300 Descending Memphis Center
05:45PM 37.5478 -87.2731 62° Northeast 210 242 11,200 -360 Descending Memphis Center
05:46PM 37.5711 -87.2172 62° Northeast 208 239 10,900 -360 Descending Memphis Center
05:47PM 37.5986 -87.1508 62° Northeast 202 232 10,600 -300 Descending Memphis Center